PST,Max TemperatureF,Mean TemperatureF,Min TemperatureF,Max Dew PointF,MeanDew PointF,Min DewpointF,Max Humidity, Mean Humidity, Min Humidity, Max Sea Level PressureIn, Mean Sea Level PressureIn, Min Sea Level PressureIn, Max VisibilityMiles, Mean VisibilityMiles, Min VisibilityMiles, Max Wind SpeedMPH, Mean Wind SpeedMPH, Max Gust SpeedMPH,PrecipitationIn, CloudCover, Events, WindDirDegrees
2013-2-1,46,39,31,36,33,28,92,81,70,30.38,30.32,30.26,10,8,0,6,0,17,0.00,6,Fog,40
2013-2-2,43,38,32,36,34,30,100,88,76,30.39,30.32,30.28,10,2,0,5,0,6,0.00,6,Fog,351
2013-2-3,40,36,32,36,34,32,100,90,79,30.39,30.30,30.24,7,2,0,6,0,7,0.00,7,Fog,77
2013-2-4,45,39,33,37,34,33,100,88,76,30.27,30.17,30.04,10,3,0,6,0,6,0.00,4,Fog,322
2013-2-5,48,40,32,41,36,32,100,88,76,30.17,30.06,30.02,10,4,0,8,1,13,0.05,7,Fog-Rain,140
2013-2-6,54,44,33,37,35,32,100,75,50,30.19,30.12,29.96,10,6,0,13,3,16,0.00,6,Fog,301
2013-2-7,48,41,34,37,34,31,92,73,53,30.06,30.02,29.97,10,10,4,16,3,23,0.08,7,Rain,345
2013-2-8,48,40,32,36,31,24,100,71,42,30.25,30.16,30.06,10,9,0,16,3,22,0.00,6,Fog,331
2013-2-9,49,39,28,32,28,25,92,69,46,30.29,30.25,30.21,10,10,7,8,1,9,0.00,4,,343
2013-2-10,54,41,27,33,30,25,92,65,38,30.33,30.26,30.19,10,10,7,8,1,8,0.00,2,,344
2013-2-11,44,36,27,34,30,25,92,81,70,30.45,30.37,30.29,10,10,7,8,1,9,0.00,6,,112
2013-2-12,54,44,34,37,34,31,92,71,50,30.55,30.49,30.46,10,10,9,8,2,15,0.00,6,,261
2013-2-13,59,46,33,41,35,31,96,72,47,30.52,30.47,30.40,10,10,9,10,2,14,0.00,1,,355
2013-2-14,60,48,36,40,37,34,92,67,42,30.55,30.46,30.39,10,10,10,7,1,8,0.00,3,,19
2013-2-15,69,49,29,40,34,28,92,62,32,30.42,30.31,30.22,10,10,7,8,1,9,0.00,0,,198
2013-2-16,63,47,30,37,33,29,92,63,34,30.29,30.25,30.14,10,10,8,22,4,25,0.00,1,,343
2013-2-17,54,42,29,32,28,22,92,60,28,30.27,30.17,30.06,10,10,10,8,2,12,0.00,2,,207
2013-2-18,48,38,28,33,29,25,92,73,53,30.06,29.96,29.80,10,10,10,9,2,13,0.00,4,,206
2013-2-19,46,40,33,34,32,28,92,73,53,29.99,29.76,29.65,10,10,5,13,3,16,0.03,7,Rain-Snow,308
2013-2-20,50,42,34,37,31,24,92,66,39,30.14,30.08,30.01,10,10,4,13,3,15,0.09,7,Rain,358
2013-2-21,47,41,34,36,33,30,100,77,53,30.29,30.24,30.16,10,9,6,9,2,12,0.00,7,,334
2013-2-22,50,42,34,41,35,30,89,73,56,30.30,30.19,30.07,10,9,6,17,2,24,0.08,7,Rain,327
2013-2-23,46,38,30,35,32,29,92,77,62,30.45,30.35,30.19,10,10,7,23,3,26,0.03,6,Rain,303
2013-2-24,53,39,25,34,29,24,100,72,44,30.48,30.38,30.25,10,7,0,7,2,17,0.01,3,Fog,325
2013-2-25,51,42,32,36,32,24,92,64,36,30.41,30.32,30.22,10,10,5,20,6,25,0.06,6,Rain,326
2013-2-26,54,41,27,32,28,25,92,65,38,30.42,30.34,30.26,10,10,10,8,2,10,0.00,0,,322
2013-2-27,56,42,28,43,33,26,92,67,41,30.39,30.33,30.30,10,10,9,7,1,10,T,5,Rain,160
2013-2-28,55,50,45,49,46,42,93,82,71,30.53,30.44,30.32,10,8,2,6,1,8,0.07,8,Rain,342